Time;durP1;ratioP1;P1;durP2;ratioP2;P2;SDS_P1;SDS_P2;PMS_P1;PMS_P2;Temp;Humidity;BMP_temperature;BMP_pressure;BME280_temperature;BME280_humidity;BME280_pressure;Samples;Min_cycle;Max_cycle;Signal;HPM_P1;HPM_P2
2022/07/21 00:02:09;;;;;;;12.20;10.85;;;18.30;99.90;;;18.19;100.00;97535.25;4987289;28;20041;-37
2022/07/21 00:04:35;;;;;;;14.30;11.25;;;18.30;99.90;;;18.16;100.00;97520.31;4983899;28;20117;-37
2022/07/21 00:07:01;;;;;;;13.43;12.02;;;18.30;99.90;;;18.14;100.00;97522.19;4993150;28;20699;-37
2022/07/21 00:09:27;;;;;;;15.18;12.13;;;18.30;99.90;;;17.99;100.00;97500.03;4989994;28;20604;-37
2022/07/21 00:11:52;;;;;;;13.60;12.20;;;18.30;99.90;;;18.08;100.00;97514.59;4990549;28;20029;-37
2022/07/21 00:14:18;;;;;;;14.63;12.02;;;18.20;99.90;;;18.07;100.00;97526.22;4988667;28;20041;-37
2022/07/21 00:16:44;;;;;;;16.33;14.45;;;18.20;99.90;;;18.06;100.00;97522.72;4993777;28;20469;-37
2022/07/21 00:19:11;;;;;;;16.02;13.30;;;18.20;99.90;;;18.08;100.00;97522.59;4994008;28;20038;-37
2022/07/21 00:21:37;;;;;;;16.70;14.00;;;18.20;99.90;;;18.05;100.00;97531.69;4990645;28;20640;-37
2022/07/21 00:24:03;;;;;;;15.90;13.85;;;18.20;99.90;;;18.05;100.00;97534.34;4988369;28;20040;-38
2022/07/21 00:26:29;;;;;;;16.73;14.07;;;18.20;99.90;;;18.04;100.00;97526.44;4989133;28;20026;-37
2022/07/21 00:28:54;;;;;;;17.00;14.68;;;18.20;99.90;;;18.05;100.00;97544.16;4987165;28;20125;-37
2022/07/21 00:31:21;;;;;;;17.23;14.27;;;18.20;99.90;;;18.05;100.00;97542.34;4987998;28;20064;-37
2022/07/21 00:33:50;;;;;;;15.68;13.27;;;18.20;99.90;;;18.03;100.00;97551.41;4987111;28;20042;-37
2022/07/21 00:36:17;;;;;;;14.82;12.05;;;18.20;99.90;;;18.04;100.00;97548.63;4986417;28;20081;-37
2022/07/21 00:38:43;;;;;;;13.43;12.02;;;18.20;99.90;;;18.09;100.00;97535.00;4986977;28;20486;-37
2022/07/21 00:41:09;;;;;;;12.32;11.02;;;18.10;99.90;;;18.02;100.00;97523.03;4997032;28;20584;-37
2022/07/21 00:43:35;;;;;;;14.55;11.75;;;18.20;99.90;;;18.17;100.00;97550.50;4985577;28;20038;-38
2022/07/21 00:46:01;;;;;;;13.27;11.85;;;18.20;99.90;;;18.21;100.00;97549.34;4990138;28;20069;-37
2022/07/21 00:48:27;;;;;;;16.88;12.95;;;18.30;99.90;;;18.21;100.00;97539.53;4989936;28;20108;-37
2022/07/21 00:50:52;;;;;;;15.52;13.13;;;18.30;99.90;;;18.23;100.00;97532.28;4989257;28;20695;-37
2022/07/21 00:53:18;;;;;;;19.25;13.25;;;18.40;99.90;;;18.24;100.00;97525.97;4993093;28;20029;-37
2022/07/21 00:55:46;;;;;;;18.35;13.68;;;18.40;99.90;;;18.24;100.00;97523.31;4989730;28;20046;-37
2022/07/21 00:58:12;;;;;;;17.00;13.20;;;18.40;99.90;;;18.24;100.00;97517.13;4987813;28;20125;-37
2022/07/21 01:00:39;;;;;;;14.25;12.35;;;18.40;99.90;;;18.24;100.00;97527.81;4989243;28;20508;-37
2022/07/21 01:03:05;;;;;;;13.23;11.82;;;18.40;99.90;;;18.27;100.00;97538.28;4988980;28;20172;-37
2022/07/21 01:05:31;;;;;;;13.55;12.13;;;18.40;99.90;;;18.28;100.00;97539.97;4982855;28;20036;-37
2022/07/21 01:08:02;;;;;;;14.52;13.00;;;18.40;99.90;;;18.30;100.00;97544.28;4985469;28;20026;-37
2022/07/21 01:10:29;;;;;;;15.80;13.25;;;18.40;99.90;;;18.29;100.00;97550.56;4984689;28;20029;-37
2022/07/21 01:12:55;;;;;;;14.88;11.77;;;18.40;99.90;;;18.28;100.00;97554.16;4994314;28;20026;-38
2022/07/21 01:15:22;;;;;;;13.93;12.43;;;18.40;99.90;;;18.25;100.00;97551.72;4983388;28;20041;-37
2022/07/21 01:17:49;;;;;;;12.32;11.05;;;18.40;99.90;;;18.26;100.00;97553.41;4980834;28;24889;-38
2022/07/21 01:20:19;;;;;;;12.75;11.55;;;18.40;99.90;;;18.24;100.00;97546.50;4987762;28;20038;-38
2022/07/21 01:22:48;;;;;;;13.30;11.63;;;18.40;99.90;;;18.23;100.00;97545.63;4982776;28;20070;-38
2022/07/21 01:25:15;;;;;;;14.07;11.65;;;18.30;99.90;;;18.28;100.00;97559.50;4991584;28;20053;-37
2022/07/21 01:27:41;;;;;;;15.85;12.00;;;18.40;99.90;;;18.28;100.00;97556.00;4993533;28;20026;-37
2022/07/21 01:30:09;;;;;;;12.48;11.00;;;18.40;99.90;;;18.29;100.00;97555.06;4989763;28;20735;-37
2022/07/21 01:32:36;;;;;;;16.75;12.07;;;18.40;99.90;;;18.22;100.00;97551.06;4987710;28;20042;-37
2022/07/21 01:35:05;;;;;;;15.05;12.25;;;18.30;99.90;;;18.19;100.00;97549.44;4989207;28;20030;-37
2022/07/21 01:37:34;;;;;;;14.18;10.93;;;18.30;99.90;;;18.19;100.00;97568.13;4991878;28;20037;-38
2022/07/21 01:42:45;;;;;;;13.15;11.25;;;18.30;99.90;;;18.16;100.00;97556.78;4998126;28;20568;-37
2022/07/21 01:45:10;;;;;;;12.77;11.40;;;18.30;99.90;;;18.15;100.00;97547.09;4999075;28;20041;-37
2022/07/21 01:47:36;;;;;;;13.98;11.02;;;18.30;99.90;;;18.12;100.00;97562.34;4989702;28;20077;-37
2022/07/21 01:50:02;;;;;;;14.80;10.43;;;18.30;99.90;;;18.19;100.00;97568.13;4994077;28;20038;-37
2022/07/21 01:52:28;;;;;;;11.70;10.50;;;18.30;99.90;;;18.22;100.00;97585.78;4992426;28;20323;-38
2022/07/21 01:54:54;;;;;;;12.00;10.70;;;18.30;99.90;;;18.19;100.00;97572.63;4996683;28;20213;-37
2022/07/21 01:57:19;;;;;;;11.93;10.50;;;18.40;99.90;;;18.25;100.00;97589.09;4999669;28;20049;-38
2022/07/21 01:59:45;;;;;;;11.23;10.02;;;18.40;99.90;;;18.30;100.00;97610.13;4999469;28;20038;-37
2022/07/21 02:02:11;;;;;;;13.35;10.95;;;18.40;99.90;;;18.33;100.00;97619.78;4995447;28;20034;-38
2022/07/21 02:04:37;;;;;;;11.55;10.35;;;18.40;99.90;;;18.38;100.00;97617.66;4990792;28;20754;-38
2022/07/21 02:07:03;;;;;;;11.18;10.02;;;18.50;99.90;;;18.39;100.00;97601.53;4995541;28;20075;-38
2022/07/21 02:09:28;;;;;;;13.10;10.52;;;18.50;99.90;;;18.42;100.00;97589.81;4991773;28;20100;-38
2022/07/21 02:11:54;;;;;;;15.82;11.68;;;18.50;99.90;;;18.43;100.00;97595.06;4989800;28;20125;-37
2022/07/21 02:14:20;;;;;;;11.70;10.43;;;18.50;99.90;;;18.41;100.00;97582.75;4988618;28;20056;-37
2022/07/21 02:16:46;;;;;;;11.75;10.55;;;18.50;99.90;;;18.38;100.00;97586.47;4980375;28;20044;-37
2022/07/21 02:19:12;;;;;;;13.10;9.50;;;18.50;99.90;;;18.40;100.00;97587.22;4982873;28;20049;-38
2022/07/21 02:21:38;;;;;;;11.57;9.05;;;18.50;99.90;;;18.39;100.00;97576.66;4980486;28;20091;-38
2022/07/21 02:24:04;;;;;;;12.48;9.77;;;18.50;99.90;;;18.40;100.00;97573.03;4992164;28;20485;-37
2022/07/21 02:26:30;;;;;;;15.20;10.35;;;18.50;99.90;;;18.39;100.00;97580.16;4987090;28;20389;-38
2022/07/21 02:28:55;;;;;;;13.40;10.43;;;18.50;99.90;;;18.34;100.00;97576.09;4994823;28;20026;-38
2022/07/21 02:31:21;;;;;;;11.32;10.18;;;18.50;99.90;;;18.37;100.00;97584.75;4990011;28;20034;-38
2022/07/21 02:33:47;;;;;;;11.50;9.98;;;18.50;99.90;;;18.39;100.00;97582.84;4989372;28;20035;-37
2022/07/21 02:36:13;;;;;;;11.02;9.55;;;18.50;99.90;;;18.40;100.00;97581.91;4988393;28;20042;-38
2022/07/21 02:38:38;;;;;;;11.13;10.02;;;18.50;99.90;;;18.42;100.00;97584.47;4992995;28;20116;-38
2022/07/21 02:41:04;;;;;;;11.75;9.93;;;18.50;99.90;;;18.47;100.00;97579.69;4990047;28;20389;-38
2022/07/21 02:43:30;;;;;;;12.25;9.45;;;18.50;99.90;;;18.49;100.00;97577.75;4987319;28;20268;-38
2022/07/21 02:45:56;;;;;;;11.73;10.10;;;18.60;99.90;;;18.50;100.00;97575.00;4987618;28;20057;-38
2022/07/21 02:48:22;;;;;;;12.02;9.77;;;18.60;99.90;;;18.53;100.00;97584.59;4989094;28;20397;-38
2022/07/21 02:50:48;;;;;;;13.38;11.38;;;18.60;99.90;;;18.55;100.00;97587.19;4986593;28;20034;-38
2022/07/21 02:53:18;;;;;;;9.98;8.98;;;18.60;99.90;;;18.54;100.00;97583.66;4992096;28;20121;-37
2022/07/21 02:55:50;;;;;;;10.10;8.85;;;18.60;99.90;;;18.54;100.00;97593.47;4985936;28;20034;-38
2022/07/21 02:58:25;;;;;;;10.38;9.13;;;18.60;99.90;;;18.54;100.00;97585.44;4991960;28;20030;-38
2022/07/21 03:00:58;;;;;;;9.55;8.52;;;18.60;99.90;;;18.54;100.00;97583.66;4978397;28;20143;-38
2022/07/21 03:03:27;;;;;;;10.45;9.15;;;18.60;99.90;;;18.56;100.00;97580.91;4979821;28;20129;-37
2022/07/21 03:05:53;;;;;;;10.77;8.82;;;18.60;99.90;;;18.57;100.00;97590.59;4986398;28;20061;-38
2022/07/21 03:08:20;;;;;;;9.95;9.02;;;18.70;99.90;;;18.56;100.00;97588.91;4982004;28;20037;-38
2022/07/21 03:10:46;;;;;;;10.13;8.00;;;18.70;99.90;;;18.57;100.00;97587.94;4986486;28;20069;-38
2022/07/21 03:13:12;;;;;;;9.07;8.20;;;18.60;99.90;;;18.57;100.00;97582.59;4989420;28;20022;-38
2022/07/21 03:15:38;;;;;;;11.32;9.02;;;18.60;99.90;;;18.53;100.00;97578.41;4984561;28;20042;-38
2022/07/21 03:18:04;;;;;;;9.07;7.68;;;18.60;99.90;;;18.48;100.00;97584.94;4991669;28;20137;-38
2022/07/21 03:20:35;;;;;;;9.02;7.63;;;18.60;99.90;;;18.41;100.00;97580.06;4983051;28;20034;-38
2022/07/21 03:23:02;;;;;;;8.10;7.20;;;18.60;99.90;;;18.47;100.00;97587.69;4983909;28;20033;-38
2022/07/21 03:25:27;;;;;;;8.93;7.55;;;18.60;99.90;;;18.45;100.00;97595.81;4985122;28;20042;-38
2022/07/21 03:27:54;;;;;;;9.10;7.95;;;18.50;99.90;;;18.43;100.00;97618.19;4981987;28;20041;-38
2022/07/21 03:30:21;;;;;;;10.77;7.80;;;18.50;99.90;;;18.41;100.00;97620.13;4988331;28;20046;-38
2022/07/21 03:32:48;;;;;;;11.48;8.60;;;18.50;99.90;;;18.45;100.00;97617.16;4987767;28;20022;-38
2022/07/21 03:35:14;;;;;;;9.32;8.32;;;18.50;99.90;;;18.38;100.00;97590.97;4990415;28;20034;-37
2022/07/21 03:37:51;;;;;;;9.57;8.18;;;18.50;99.90;;;18.46;100.00;97621.53;4987591;28;20122;-37
2022/07/21 03:40:25;;;;;;;11.07;8.60;;;18.60;99.90;;;18.43;100.00;97637.78;4980166;28;20076;-38
2022/07/21 03:42:53;;;;;;;10.32;8.27;;;18.50;99.90;;;18.39;100.00;97633.56;4988746;28;21734;-38
2022/07/21 03:45:19;;;;;;;10.95;8.77;;;18.50;99.90;;;18.37;100.00;97635.47;4989639;28;20625;-37
2022/07/21 03:47:45;;;;;;;12.02;8.25;;;18.50;99.90;;;18.37;100.00;97629.28;4985928;28;20046;-38
2022/07/21 03:50:12;;;;;;;9.48;8.30;;;18.50;99.90;;;18.35;100.00;97641.91;4989983;28;20032;-38
2022/07/21 03:52:38;;;;;;;8.93;8.00;;;18.50;99.90;;;18.35;100.00;97636.56;4987373;28;20022;-38
2022/07/21 03:55:12;;;;;;;8.73;7.88;;;18.50;99.90;;;18.36;100.00;97641.78;4993668;28;20092;-38
2022/07/21 03:57:53;;;;;;;10.07;8.98;;;18.50;99.90;;;18.32;100.00;97634.91;4991606;28;20052;-38
2022/07/21 04:00:32;;;;;;;8.63;7.80;;;18.50;99.90;;;18.32;100.00;97645.59;4989597;28;20040;-38
2022/07/21 04:03:00;;;;;;;9.23;8.05;;;18.40;99.90;;;18.33;100.00;97649.16;4991995;28;20069;-37
2022/07/21 04:05:26;;;;;;;9.07;8.18;;;18.40;99.90;;;18.34;100.00;97653.50;4986913;28;21621;-38
2022/07/21 04:07:54;;;;;;;8.57;7.78;;;18.40;99.90;;;18.37;100.00;97664.84;4990334;28;20056;-38
2022/07/21 04:12:50;;;;;;;11.07;8.80;;;18.50;99.90;;;18.44;100.00;97657.31;4982586;28;20058;-39
2022/07/21 04:15:16;;;;;;;11.60;8.68;;;18.50;99.90;;;18.45;100.00;97651.88;4987329;28;20041;-39
2022/07/21 04:17:42;;;;;;;10.45;8.90;;;18.50;99.90;;;18.47;100.00;97649.97;4989687;28;20120;-39
2022/07/21 04:20:10;;;;;;;11.98;9.35;;;18.60;99.90;;;18.47;100.00;97649.97;4991260;28;20034;-39
2022/07/21 04:22:37;;;;;;;9.68;8.55;;;18.50;99.90;;;18.45;100.00;97654.56;4967309;28;20038;-40
2022/07/21 04:25:05;;;;;;;10.88;9.77;;;18.50;99.90;;;18.40;100.00;97659.31;4967755;28;20439;-39
2022/07/21 04:27:31;;;;;;;11.75;10.38;;;18.50;99.90;;;18.35;100.00;97664.09;4979240;28;20316;-39
2022/07/21 04:29:56;;;;;;;12.60;11.00;;;18.50;99.90;;;18.30;100.00;97661.75;4964950;28;20030;-40
2022/07/21 04:32:22;;;;;;;13.70;10.88;;;18.40;99.90;;;18.28;100.00;97662.78;4972001;28;20205;-39
2022/07/21 04:34:48;;;;;;;13.02;10.18;;;18.40;99.90;;;18.26;100.00;97675.38;4975077;28;20030;-39
2022/07/21 04:37:14;;;;;;;10.90;9.68;;;18.40;99.90;;;18.29;100.00;97670.69;4972791;28;20041;-39
2022/07/21 04:39:39;;;;;;;11.30;9.70;;;18.40;99.90;;;18.35;100.00;97674.78;4971048;28;20080;-39
2022/07/21 04:42:05;;;;;;;14.77;10.45;;;18.40;99.90;;;18.24;100.00;97659.44;4974274;28;20494;-39
2022/07/21 04:44:31;;;;;;;13.35;10.18;;;18.50;99.90;;;18.40;100.00;97678.00;4975350;28;20186;-39
2022/07/21 04:46:57;;;;;;;11.13;9.98;;;18.50;99.90;;;18.41;100.00;97678.88;4973903;28;20038;-39
2022/07/21 04:49:23;;;;;;;12.43;9.77;;;18.50;99.90;;;18.41;100.00;97684.22;4974827;28;20354;-39
2022/07/21 04:51:48;;;;;;;13.95;10.93;;;18.50;99.90;;;18.40;100.00;97674.50;4976612;28;20655;-39
2022/07/21 04:54:14;;;;;;;11.95;10.25;;;18.50;99.90;;;18.36;100.00;97671.16;4979459;28;20037;-39
2022/07/21 04:56:42;;;;;;;12.65;10.70;;;18.50;99.90;;;18.40;100.00;97678.00;4973375;28;20137;-40
2022/07/21 04:59:08;;;;;;;13.18;10.80;;;18.50;99.90;;;18.47;100.00;97679.34;4974065;28;20030;-40
2022/07/21 05:01:35;;;;;;;13.13;10.52;;;18.60;99.90;;;18.57;100.00;97678.72;4975068;28;20030;-39
2022/07/21 05:04:01;;;;;;;12.10;9.75;;;18.70;99.90;;;18.72;100.00;97674.19;4972452;28;20491;-39
2022/07/21 05:06:26;;;;;;;12.18;10.13;;;18.80;99.90;;;18.79;100.00;97656.81;4975258;28;20037;-39
2022/07/21 05:08:52;;;;;;;11.40;10.10;;;18.90;99.90;;;18.91;100.00;97656.03;4969887;28;20042;-39
2022/07/21 05:11:18;;;;;;;10.15;9.15;;;19.00;99.90;;;18.97;100.00;97666.31;4969219;28;20468;-39
2022/07/21 05:13:43;;;;;;;11.27;9.30;;;19.00;99.90;;;19.01;100.00;97675.84;4967900;28;20093;-39
2022/07/21 05:16:09;;;;;;;13.95;9.48;;;19.10;99.90;;;19.08;100.00;97681.63;4968595;28;20742;-39
2022/07/21 05:18:35;;;;;;;12.77;9.07;;;19.10;99.90;;;19.19;100.00;97687.13;4964828;28;20564;-39
2022/07/21 05:21:00;;;;;;;10.43;9.00;;;19.20;99.90;;;19.35;100.00;97678.06;4971027;28;20065;-39
2022/07/21 05:23:26;;;;;;;10.10;8.25;;;19.30;99.90;;;19.50;100.00;97679.69;4970832;28;20105;-40
2022/07/21 05:25:52;;;;;;;9.20;8.10;;;19.50;99.90;;;19.65;100.00;97681.31;4974028;28;20034;-39
2022/07/21 05:28:18;;;;;;;8.68;7.78;;;19.60;99.90;;;19.85;100.00;97679.09;4970408;28;20502;-39
2022/07/21 05:30:43;;;;;;;13.02;9.10;;;19.70;99.90;;;20.01;100.00;97674.34;4965107;28;20775;-39
2022/07/21 05:33:09;;;;;;;10.68;7.90;;;19.90;99.90;;;20.13;100.00;97682.47;4972500;28;20112;-39
2022/07/21 05:35:35;;;;;;;10.85;8.85;;;20.00;99.90;;;20.26;100.00;97686.00;4972319;28;20054;-39
2022/07/21 05:38:01;;;;;;;9.13;8.00;;;20.10;99.90;;;20.43;100.00;97689.28;4971342;28;20026;-40
2022/07/21 05:40:27;;;;;;;9.02;7.95;;;20.30;99.90;;;20.55;100.00;97691.91;4972785;28;20505;-40
2022/07/21 05:42:52;;;;;;;8.68;7.10;;;20.50;99.90;;;20.69;100.00;97687.41;4973304;28;20722;-40
2022/07/21 05:45:18;;;;;;;12.18;9.15;;;20.60;99.90;;;20.71;100.00;97693.50;4973075;28;20239;-40
2022/07/21 05:47:44;;;;;;;11.02;8.73;;;20.70;99.90;;;20.59;100.00;97685.38;4970784;28;20030;-40
2022/07/21 05:50:11;;;;;;;11.68;8.30;;;20.60;99.90;;;20.57;100.00;97691.81;4972325;28;20058;-40
2022/07/21 05:52:37;;;;;;;13.50;8.57;;;20.60;99.90;;;20.63;100.00;97703.94;4974809;28;20403;-39
2022/07/21 05:55:03;;;;;;;7.68;6.88;;;20.60;99.90;;;20.74;100.00;97704.84;4974781;28;20363;-40
2022/07/21 05:57:29;;;;;;;8.68;7.78;;;20.60;99.90;;;20.62;100.00;97704.88;4958664;28;20667;-40
2022/07/21 05:59:55;;;;;;;8.50;7.60;;;20.60;99.90;;;20.56;100.00;97715.06;4978645;28;20049;-40
2022/07/21 06:02:21;;;;;;;8.07;6.75;;;20.50;99.90;;;20.55;100.00;97713.34;4975877;28;20121;-40
2022/07/21 06:04:47;;;;;;;9.48;6.72;;;20.50;99.90;;;20.58;100.00;97726.53;4975313;28;20041;-40
2022/07/21 06:07:12;;;;;;;8.63;7.05;;;20.50;99.90;;;20.72;100.00;97725.53;4974231;28;20096;-40
2022/07/21 06:09:38;;;;;;;9.02;7.45;;;20.60;99.90;;;20.84;100.00;97718.44;4975009;28;20364;-40
2022/07/21 06:12:04;;;;;;;9.45;7.03;;;20.70;99.90;;;20.97;100.00;97726.44;4977372;28;20053;-40
2022/07/21 06:14:30;;;;;;;10.68;9.02;;;20.80;99.90;;;21.06;100.00;97733.78;4982323;28;20042;-40
2022/07/21 06:16:55;;;;;;;11.05;8.05;;;21.00;99.90;;;21.14;100.00;97733.22;4971898;28;20639;-40
2022/07/21 06:19:21;;;;;;;10.02;7.60;;;21.10;99.90;;;21.38;100.00;97735.88;4977199;28;20045;-40
2022/07/21 06:21:47;;;;;;;12.32;7.63;;;21.30;99.90;;;21.59;100.00;97738.81;4976168;28;20231;-40
2022/07/21 06:24:13;;;;;;;8.45;6.93;;;21.50;99.90;;;21.66;100.00;97740.03;4980152;28;20045;-40
2022/07/21 06:26:39;;;;;;;9.25;7.13;;;21.60;99.90;;;21.63;100.00;97734.91;4974134;28;20038;-40
2022/07/21 06:29:06;;;;;;;10.38;7.63;;;21.60;99.90;;;21.69;100.00;97734.41;4973418;28;20104;-40
2022/07/21 06:31:32;;;;;;;8.82;7.05;;;21.70;99.90;;;21.80;100.00;97743.47;4970428;28;20046;-40
2022/07/21 06:33:58;;;;;;;10.07;7.28;;;21.80;99.90;;;21.76;100.00;97744.69;4979962;28;20057;-40
2022/07/21 06:36:24;;;;;;;8.82;7.93;;;21.80;99.90;;;21.78;100.00;97743.59;4978357;28;20494;-40
2022/07/21 06:38:50;;;;;;;9.07;7.70;;;21.80;99.90;;;21.80;100.00;97738.09;4975203;28;20050;-39
2022/07/21 06:41:15;;;;;;;7.80;7.00;;;21.80;99.90;;;21.80;100.00;97743.47;4978792;28;20048;-40
2022/07/21 06:43:41;;;;;;;7.85;6.75;;;21.80;99.90;;;21.83;100.00;97745.94;4969091;28;20596;-40
2022/07/21 06:46:07;;;;;;;7.95;6.75;;;21.80;99.90;;;21.97;100.00;97739.50;4971449;28;21314;-39
2022/07/21 06:48:32;;;;;;;7.35;6.65;;;22.00;99.90;;;22.02;100.00;97737.28;4980263;28;20143;-40
2022/07/21 06:50:58;;;;;;;11.23;8.25;;;22.00;99.90;;;21.88;100.00;97743.75;4975461;28;20728;-40
2022/07/21 06:53:25;;;;;;;9.07;7.40;;;22.00;99.90;;;21.88;100.00;97741.06;4969874;28;20076;-40
2022/07/21 06:55:52;;;;;;;8.02;7.15;;;21.90;99.90;;;21.88;100.00;97749.97;4974382;28;20069;-40
2022/07/21 06:58:22;;;;;;;8.23;6.88;;;21.80;99.90;;;21.86;100.00;97741.19;4976920;28;20026;-40
2022/07/21 07:00:49;;;;;;;8.00;6.60;;;21.80;99.90;;;21.72;100.00;97744.06;4970509;28;20022;-40
2022/07/21 07:03:16;;;;;;;10.15;7.32;;;21.70;99.90;;;21.65;100.00;97749.06;4967847;28;20092;-40
2022/07/21 07:05:44;;;;;;;9.63;7.53;;;21.70;99.90;;;21.60;100.00;97745.00;4967366;28;20039;-40
2022/07/21 07:08:11;;;;;;;8.63;7.30;;;21.60;99.90;;;21.46;100.00;97741.56;4971781;28;20034;-41
2022/07/21 07:10:36;;;;;;;11.60;7.75;;;21.50;99.90;;;21.54;100.00;97738.28;4978659;28;20109;-40
2022/07/21 07:13:03;;;;;;;13.55;7.45;;;21.60;99.90;;;21.67;100.00;97749.78;4976801;28;20084;-41
2022/07/21 07:15:29;;;;;;;8.90;7.45;;;21.70;99.90;;;21.79;100.00;97752.53;4978627;28;20034;-41
2022/07/21 07:17:55;;;;;;;8.38;6.88;;;21.80;99.90;;;21.92;100.00;97750.59;4973897;28;20095;-41
2022/07/21 07:20:21;;;;;;;11.75;8.15;;;21.90;99.90;;;21.94;100.00;97754.00;4976593;28;20062;-41
2022/07/21 07:22:47;;;;;;;9.07;7.50;;;22.10;99.90;;;22.00;100.00;97758.03;4976717;28;20085;-41
2022/07/21 07:25:16;;;;;;;8.40;6.90;;;22.00;99.90;;;22.09;100.00;97752.81;4972809;28;20471;-41
2022/07/21 07:27:44;;;;;;;7.95;6.95;;;22.10;99.90;;;22.26;100.00;97751.50;4977101;28;20157;-41
2022/07/21 07:30:10;;;;;;;11.50;7.90;;;22.30;99.90;;;22.39;100.00;97742.47;4980150;28;20033;-41
2022/07/21 07:32:36;;;;;;;10.65;8.20;;;22.50;99.90;;;22.59;100.00;97754.31;4976428;28;20026;-41
2022/07/21 07:35:02;;;;;;;9.73;7.10;;;22.70;99.90;;;22.82;96.98;97752.47;4972156;28;20497;-39
2022/07/21 07:37:28;;;;;;;8.70;6.88;;;23.00;99.90;;;23.22;97.09;97755.47;4981224;28;20038;-39
2022/07/21 07:39:53;;;;;;;11.93;7.32;;;23.30;99.90;;;23.50;96.11;97760.38;4978163;28;20034;-39
2022/07/21 07:42:19;;;;;;;8.40;7.05;;;23.60;99.90;;;23.67;92.81;97749.03;4976706;28;20053;-39
2022/07/21 07:44:46;;;;;;;8.70;6.60;;;23.80;99.90;;;23.94;94.19;97753.91;4974840;28;20078;-39
2022/07/21 07:47:11;;;;;;;9.40;7.35;;;24.00;99.90;;;24.06;81.77;97756.53;4976818;28;20030;-39
2022/07/21 07:49:37;;;;;;;10.63;6.57;;;24.30;99.90;;;24.30;88.64;97757.09;4970882;28;20382;-39
2022/07/21 07:52:04;;;;;;;12.38;7.10;;;24.40;99.90;;;24.19;89.46;97755.34;4982545;28;20084;-39
2022/07/21 07:54:29;;;;;;;7.22;6.40;;;24.50;99.90;;;24.14;86.83;97757.56;4978511;28;20026;-39
2022/07/21 07:56:55;;;;;;;8.23;6.80;;;24.30;99.90;;;23.91;83.65;97759.56;4978101;28;20569;-39
2022/07/21 07:59:21;;;;;;;8.98;6.57;;;24.00;99.90;;;23.70;87.96;97753.28;4980446;28;20338;-40
2022/07/21 08:01:47;;;;;;;9.13;6.82;;;23.80;99.90;;;23.67;89.94;97750.84;4975953;28;20661;-39
2022/07/21 08:04:14;;;;;;;10.43;6.38;;;23.80;99.90;;;23.57;81.14;97754.31;4979269;28;20042;-40
2022/07/21 08:06:40;;;;;;;8.95;6.20;;;23.80;99.90;;;23.53;77.64;97752.03;4972092;28;20050;-40
2022/07/21 08:09:05;;;;;;;11.82;6.28;;;23.70;99.90;;;23.63;79.69;97755.63;4979014;28;20485;-40
2022/07/21 08:11:31;;;;;;;6.05;5.40;;;23.80;99.90;;;23.75;81.01;97764.53;4969727;28;20053;-40
2022/07/21 08:13:57;;;;;;;8.45;6.20;;;23.90;99.90;;;24.00;78.22;97758.75;4976847;28;20068;-40
2022/07/21 08:16:22;;;;;;;7.75;5.30;;;24.20;99.90;;;24.29;79.76;97758.06;4975826;28;21196;-40
2022/07/21 08:18:48;;;;;;;8.07;5.80;;;24.40;99.90;;;24.38;77.70;97757.25;4976334;28;20031;-40
2022/07/21 08:21:14;;;;;;;9.70;6.18;;;24.50;99.90;;;24.47;77.44;97769.09;4972844;28;20516;-40
2022/07/21 08:23:40;;;;;;;7.07;5.88;;;24.50;99.90;;;24.28;78.23;97768.97;4975961;28;20073;-40
2022/07/21 08:26:05;;;;;;;6.60;5.38;;;24.30;99.90;;;24.09;79.22;97767.91;4972981;28;20274;-40
2022/07/21 08:28:31;;;;;;;8.10;5.82;;;24.20;99.90;;;23.94;78.44;97774.59;4970911;28;21032;-40
2022/07/21 08:30:57;;;;;;;7.07;5.32;;;24.00;99.90;;;23.77;78.90;97767.94;4970245;28;20038;-40
2022/07/21 08:33:23;;;;;;;8.13;5.95;;;23.90;99.90;;;23.71;78.27;97772.00;4969369;28;20425;-40
2022/07/21 08:35:48;;;;;;;8.52;5.43;;;23.80;99.90;;;23.82;81.01;97760.34;4974712;28;20392;-40
2022/07/21 08:38:14;;;;;;;6.60;5.88;;;23.90;99.90;;;23.86;93.40;97759.09;4976397;28;20042;-40
2022/07/21 08:40:44;;;;;;;7.70;5.80;;;23.90;99.90;;;23.87;96.02;97765.31;4975410;28;20069;-40
2022/07/21 08:43:13;;;;;;;8.13;5.50;;;23.80;99.90;;;23.94;95.62;97759.31;4977246;28;20034;-40
2022/07/21 08:45:40;;;;;;;8.30;5.63;;;23.90;99.90;;;23.93;86.20;97762.13;4976882;28;20038;-40
2022/07/21 08:48:07;;;;;;;6.93;5.80;;;23.90;99.90;;;23.94;85.71;97763.81;4971108;28;20049;-40
2022/07/21 08:50:36;;;;;;;5.88;5.15;;;23.90;99.90;;;23.93;83.00;97765.66;4973264;28;20381;-40
2022/07/21 08:53:02;;;;;;;6.15;4.57;;;23.90;99.90;;;23.95;82.03;97765.53;4977049;28;20035;-40
2022/07/21 08:55:31;;;;;;;7.05;5.35;;;23.90;99.90;;;23.95;77.27;97746.69;4962236;28;20042;-40
2022/07/21 08:57:56;;;;;;;6.15;5.20;;;24.00;99.90;;;23.94;76.75;97759.31;4970114;28;20482;-40
2022/07/21 09:00:22;;;;;;;9.68;6.22;;;23.90;99.90;;;23.94;77.73;97751.22;4972713;28;20046;-40
2022/07/21 09:02:48;;;;;;;6.32;5.57;;;24.00;99.90;;;23.92;75.50;97753.19;4974673;28;20034;-40
2022/07/21 09:05:14;;;;;;;8.73;6.15;;;24.00;99.90;;;23.98;76.21;97749.13;4976254;28;20634;-40
2022/07/21 09:07:54;;;;;;;6.63;5.80;;;24.10;99.90;;;23.99;75.17;97761.59;4975682;28;20364;-40
2022/07/21 09:10:27;;;;;;;7.47;5.53;;;24.10;99.90;;;24.15;72.76;97755.72;4969835;28;20957;-40
2022/07/21 09:12:59;;;;;;;;;;;24.20;99.90;;;24.12;71.74;97756.88;4956087;28;20034;-40
2022/07/21 09:15:27;;;;;;;6.78;5.38;;;24.20;99.90;;;23.93;67.34;97757.59;4975588;28;19917;-40
2022/07/21 09:18:15;;;;;;;7.22;4.95;;;24.10;99.90;;;24.01;67.93;97759.59;4974955;28;20033;-40
2022/07/21 09:20:53;;;;;;;5.97;5.25;;;24.10;99.90;;;24.20;71.04;97740.88;4979351;28;20061;-40
2022/07/21 09:23:22;;;;;;;9.02;4.75;;;24.20;99.90;;;24.23;65.48;97741.56;4972934;28;20041;-40
2022/07/21 09:25:54;;;;;;;6.50;4.88;;;24.40;99.90;;;24.45;69.35;97752.19;4980113;28;20102;-40
2022/07/21 09:28:23;;;;;;;6.70;4.18;;;24.50;99.90;;;24.59;65.29;97742.94;4960775;28;20041;-40
2022/07/21 09:30:52;;;;;;;5.38;4.13;;;24.60;99.90;;;24.62;62.96;97731.88;4980439;28;20030;-40
2022/07/21 09:33:26;;;;;;;9.15;4.35;;;24.80;99.90;;;24.68;61.26;97752.03;4973325;28;21596;-40
2022/07/21 09:35:55;;;;;;;5.18;4.40;;;24.80;99.90;;;24.56;58.45;97740.50;4975039;28;20399;-40
2022/07/21 09:38:21;;;;;;;5.72;4.60;;;24.60;99.90;;;24.17;61.19;97743.84;4974625;28;20041;-41
2022/07/21 09:40:47;;;;;;;5.40;4.50;;;24.40;99.90;;;23.99;60.79;97749.00;4971547;28;20501;-40
2022/07/21 09:43:57;;;;;;;5.03;4.13;;;24.10;99.90;;;23.87;63.38;97735.69;4977197;28;20381;-40
2022/07/21 09:46:28;;;;;;;6.47;4.50;;;24.00;99.90;;;23.94;63.93;97742.28;4962927;28;20069;-40
2022/07/21 09:48:56;;;;;;;6.25;4.55;;;24.00;99.90;;;24.20;66.17;97737.31;4974040;28;20264;-40
2022/07/21 09:51:32;;;;;;;5.50;4.38;;;24.30;99.90;;;24.74;65.10;97740.69;4980644;28;20030;-40
2022/07/21 09:54:11;;;;;;;5.20;4.00;;;24.80;99.90;;;25.20;55.17;97741.94;4981108;28;20034;-40
2022/07/21 09:56:44;;;;;;;5.70;4.80;;;25.40;99.50;;;25.53;56.45;97734.44;4979571;28;20038;-41
2022/07/21 09:59:12;;;;;;;6.57;4.50;;;25.70;99.20;;;25.85;55.49;97746.78;4973588;28;20034;-40
2022/07/21 10:01:38;;;;;;;7.53;4.40;;;26.00;99.00;;;26.00;52.85;97739.09;4966744;28;20038;-41
2022/07/21 10:04:05;;;;;;;7.50;4.88;;;26.20;97.90;;;26.31;52.99;97739.72;4978762;28;20245;-41
2022/07/21 10:06:36;;;;;;;5.63;4.22;;;26.40;97.70;;;26.51;53.30;97726.97;4972454;28;20304;-41
2022/07/21 10:09:08;;;;;;;8.40;4.60;;;26.60;97.20;;;26.41;48.26;97737.81;4966564;28;20240;-41
2022/07/21 10:11:34;;;;;;;5.82;3.83;;;26.70;94.00;;;26.50;49.04;97735.25;4992070;22;20042;-38
2022/07/21 10:14:02;;;;;;;4.63;3.97;;;26.70;94.80;;;26.69;50.45;97734.34;4992649;28;20544;-38